Time;durP1;ratioP1;P1;durP2;ratioP2;P2;SDS_P1;SDS_P2;PMS_P1;PMS_P2;Temp;Humidity;BMP_temperature;BMP_pressure;BME280_temperature;BME280_humidity;BME280_pressure;Samples;Min_cycle;Max_cycle;Signal;HPM_P1;HPM_P2
2022/05/02 00:00:10;;;;;;;11.32;7.60;;;3.50;99.90;;;;;;4965080;28;20053;-79
2022/05/02 00:02:36;;;;;;;11.13;8.00;;;3.50;99.90;;;;;;5023539;28;20038;-78
2022/05/02 00:05:04;;;;;;;11.52;8.65;;;3.50;99.90;;;;;;5022123;28;20378;-78
2022/05/02 00:07:29;;;;;;;14.30;9.35;;;3.50;99.90;;;;;;4992249;28;20049;-79
2022/05/02 00:09:55;;;;;;;13.27;9.07;;;3.50;99.90;;;;;;4973725;28;20049;-79
2022/05/02 00:12:21;;;;;;;18.45;9.50;;;3.60;99.90;;;;;;4989358;28;20046;-78
2022/05/02 00:14:46;;;;;;;15.50;9.07;;;3.60;99.90;;;;;;5023001;28;20050;-82
2022/05/02 00:17:12;;;;;;;11.98;8.57;;;3.60;99.90;;;;;;4950441;28;20494;-79
2022/05/02 00:19:38;;;;;;;16.98;9.63;;;3.70;99.90;;;;;;5007375;28;20053;-80
2022/05/02 00:22:04;;;;;;;13.38;9.07;;;3.60;99.90;;;;;;4991373;28;20045;-81
2022/05/02 00:24:30;;;;;;;15.77;9.15;;;3.50;99.90;;;;;;5005030;28;20045;-79
2022/05/02 00:26:56;;;;;;;13.57;9.30;;;3.50;99.90;;;;;;5005604;28;20086;-79
2022/05/02 00:29:22;;;;;;;12.95;9.30;;;3.50;99.90;;;;;;5006606;28;20061;-78
2022/05/02 00:31:48;;;;;;;14.45;10.07;;;3.40;99.90;;;;;;5007197;28;20050;-78
2022/05/02 00:34:14;;;;;;;12.50;9.18;;;3.40;99.90;;;;;;4989155;28;20073;-78
2022/05/02 00:36:40;;;;;;;14.80;9.43;;;3.30;99.90;;;;;;4960185;28;20062;-81
2022/05/02 00:39:06;;;;;;;14.07;9.52;;;3.30;99.90;;;;;;5006557;28;20481;-78
2022/05/02 00:41:32;;;;;;;12.73;8.23;;;3.20;99.90;;;;;;5021789;28;20523;-78
2022/05/02 00:43:58;;;;;;;15.18;9.18;;;3.20;99.90;;;;;;5006147;28;20144;-81
2022/05/02 00:46:25;;;;;;;15.38;9.32;;;3.20;99.90;;;;;;4989235;28;20177;-79
2022/05/02 00:48:52;;;;;;;15.82;10.00;;;3.10;99.90;;;;;;5006913;28;20097;-78
2022/05/02 00:51:19;;;;;;;15.30;9.90;;;3.10;99.90;;;;;;5023071;28;20046;-78
2022/05/02 00:53:50;;;;;;;14.60;9.35;;;3.20;99.90;;;;;;4990068;28;20054;-78
2022/05/02 00:56:16;;;;;;;14.80;10.15;;;3.00;99.90;;;;;;5006334;28;20522;-80
2022/05/02 00:58:43;;;;;;;16.20;10.32;;;3.00;99.90;;;;;;4991215;28;20060;-78
2022/05/02 01:01:09;;;;;;;15.48;10.02;;;3.00;99.90;;;;;;4994096;28;20071;-80
2022/05/02 01:03:35;;;;;;;13.32;9.35;;;3.00;99.90;;;;;;5026232;28;20085;-79
2022/05/02 01:08:46;;;;;;;16.52;10.23;;;2.90;99.90;;;;;;5008899;28;20136;-78
2022/05/02 01:11:12;;;;;;;14.90;10.25;;;2.80;99.90;;;;;;4974874;28;20489;-84
2022/05/02 01:13:39;;;;;;;18.45;10.43;;;2.80;99.90;;;;;;4992916;28;20069;-81
2022/05/02 01:16:19;;;;;;;19.02;11.15;;;2.80;99.90;;;;;;5026871;28;20053;-79
2022/05/02 01:18:50;;;;;;;17.83;11.57;;;2.80;99.90;;;;;;5002885;28;20080;-79
2022/05/02 01:21:16;;;;;;;20.75;12.00;;;2.80;99.90;;;;;;5023309;28;20543;-79
2022/05/02 01:23:51;;;;;;;17.33;11.68;;;2.70;99.90;;;;;;5024386;28;20048;-79
2022/05/02 01:26:17;;;;;;;21.08;12.40;;;2.70;99.90;;;;;;5026245;28;20073;-78
2022/05/02 01:28:44;;;;;;;24.90;12.25;;;2.70;99.90;;;;;;4964282;28;20445;-78
2022/05/02 01:31:10;;;;;;;17.55;12.27;;;2.80;99.90;;;;;;5023334;28;20061;-80
2022/05/02 01:33:36;;;;;;;16.33;11.95;;;2.90;99.90;;;;;;4989731;28;20038;-78
2022/05/02 01:36:02;;;;;;;20.85;12.23;;;2.90;99.90;;;;;;4993588;28;20493;-78
2022/05/02 01:38:28;;;;;;;16.77;11.32;;;2.90;99.90;;;;;;4993739;28;20665;-78
2022/05/02 01:40:54;;;;;;;16.65;11.57;;;2.80;99.90;;;;;;5008404;28;20038;-78
2022/05/02 01:43:19;;;;;;;16.27;11.23;;;2.90;99.90;;;;;;4975270;28;20054;-79
2022/05/02 01:45:45;;;;;;;21.40;11.95;;;2.80;99.90;;;;;;4991896;28;20073;-82
2022/05/02 01:48:11;;;;;;;18.50;11.70;;;2.70;99.90;;;;;;4993026;28;20045;-78
2022/05/02 01:50:36;;;;;;;17.67;11.18;;;2.70;99.90;;;;;;4974537;28;20480;-78
2022/05/02 01:53:02;;;;;;;17.17;10.93;;;2.60;99.90;;;;;;5026102;28;20046;-78
2022/05/02 01:55:28;;;;;;;17.30;11.55;;;2.60;99.90;;;;;;4992331;28;20507;-78
2022/05/02 01:57:53;;;;;;;15.82;10.68;;;2.60;99.90;;;;;;4994089;28;20060;-78
2022/05/02 02:00:19;;;;;;;16.33;10.98;;;2.60;99.90;;;;;;4992195;28;20057;-78
2022/05/02 02:02:45;;;;;;;17.13;11.75;;;2.60;99.90;;;;;;4989832;28;20065;-78
2022/05/02 02:07:55;;;;;;;15.80;10.40;;;2.70;99.90;;;;;;5009168;28;20073;-78
2022/05/02 02:10:21;;;;;;;16.80;10.95;;;2.50;99.90;;;;;;4991792;28;20096;-78
2022/05/02 02:12:47;;;;;;;18.30;11.82;;;2.50;99.90;;;;;;4991487;28;20054;-79
2022/05/02 02:15:14;;;;;;;20.92;12.23;;;2.40;99.90;;;;;;5023955;28;20500;-79
2022/05/02 02:17:43;;;;;;;16.85;11.48;;;2.40;99.90;;;;;;4956086;28;20112;-80
2022/05/02 02:20:11;;;;;;;21.25;11.70;;;2.30;99.90;;;;;;4989746;28;20089;-78
2022/05/02 02:22:37;;;;;;;20.05;12.05;;;2.30;99.90;;;;;;4991989;28;20131;-80
2022/05/02 02:25:04;;;;;;;19.80;12.43;;;2.20;99.90;;;;;;4975306;28;20050;-78
2022/05/02 02:27:31;;;;;;;16.75;11.25;;;2.20;99.90;;;;;;4977139;28;20081;-80
2022/05/02 02:29:57;;;;;;;21.42;12.38;;;2.20;99.90;;;;;;5005810;28;20129;-81
2022/05/02 02:32:23;;;;;;;20.80;12.23;;;2.20;99.90;;;;;;4976265;28;20599;-78
2022/05/02 02:34:48;;;;;;;17.23;11.75;;;2.20;99.90;;;;;;4990990;28;20141;-83
2022/05/02 02:37:15;;;;;;;21.75;12.20;;;2.10;99.90;;;;;;4992112;28;20046;-78
2022/05/02 02:39:42;;;;;;;18.67;11.80;;;2.10;99.90;;;;;;5008788;28;20046;-78
2022/05/02 02:42:08;;;;;;;20.55;13.38;;;2.10;99.90;;;;;;4991918;28;20061;-78
2022/05/02 02:44:33;;;;;;;18.48;12.10;;;2.10;99.90;;;;;;4991758;28;20054;-79
2022/05/02 02:46:59;;;;;;;22.27;12.90;;;2.10;99.90;;;;;;4991813;28;20702;-83
2022/05/02 02:49:25;;;;;;;19.52;11.50;;;2.00;99.90;;;;;;4991588;28;20042;-79
2022/05/02 02:51:51;;;;;;;21.88;13.82;;;2.00;99.90;;;;;;4992243;28;20493;-79
2022/05/02 02:54:16;;;;;;;21.35;14.43;;;2.00;99.90;;;;;;4974548;28;20046;-79
2022/05/02 02:56:42;;;;;;;22.17;13.57;;;1.90;99.90;;;;;;5008014;28;20157;-78
2022/05/02 02:59:08;;;;;;;21.80;13.73;;;1.90;99.90;;;;;;4991989;28;20049;-78
2022/05/02 03:01:35;;;;;;;20.27;13.05;;;1.90;99.90;;;;;;4991367;28;20061;-78
2022/05/02 03:06:01;;;;;;;20.50;13.60;;;2.00;99.90;;;;;;4987766;28;20042;-80
2022/05/02 03:06:46;;;;;;;15.55;10.30;;;1.90;99.90;;;;;;5006536;28;20485;-78
2022/05/02 03:09:12;;;;;;;18.65;12.38;;;1.80;99.90;;;;;;5006464;28;20049;-78
2022/05/02 03:11:38;;;;;;;23.10;13.43;;;1.80;99.90;;;;;;4966397;28;20097;-79
2022/05/02 03:14:03;;;;;;;21.50;13.25;;;1.80;99.90;;;;;;4974733;28;20140;-78
2022/05/02 03:16:29;;;;;;;19.35;13.02;;;1.90;99.90;;;;;;4974661;28;20056;-78
2022/05/02 03:18:55;;;;;;;19.65;13.95;;;1.80;99.90;;;;;;4973062;28;20096;-78
2022/05/02 03:21:21;;;;;;;18.58;12.65;;;1.80;99.90;;;;;;4973022;28;20045;-84
2022/05/02 03:23:46;;;;;;;22.17;14.35;;;1.80;99.90;;;;;;4974574;28;20042;-78
2022/05/02 03:26:12;;;;;;;22.10;13.73;;;1.70;99.90;;;;;;4974385;28;20045;-78
2022/05/02 03:28:38;;;;;;;21.65;13.45;;;1.70;99.90;;;;;;5006841;28;20045;-78
2022/05/02 03:31:04;;;;;;;19.17;12.13;;;1.70;99.90;;;;;;4991632;28;20085;-79
2022/05/02 03:33:30;;;;;;;17.33;11.27;;;1.70;99.90;;;;;;4975495;28;20520;-79
2022/05/02 03:35:55;;;;;;;18.70;11.13;;;1.70;99.90;;;;;;5022755;28;20041;-78
2022/05/02 03:38:21;;;;;;;19.55;11.50;;;1.60;99.90;;;;;;5006637;28;20545;-83
2022/05/02 03:40:47;;;;;;;17.30;10.85;;;1.60;99.90;;;;;;5004572;28;20034;-78
2022/05/02 03:43:12;;;;;;;16.70;11.05;;;1.60;99.90;;;;;;4972605;28;20048;-78
2022/05/02 03:45:38;;;;;;;16.63;10.52;;;1.60;99.90;;;;;;4990829;28;20052;-78
2022/05/02 03:48:04;;;;;;;11.48;9.05;;;1.50;99.90;;;;;;4990887;28;20081;-78
2022/05/02 03:50:30;;;;;;;14.45;10.10;;;1.50;99.90;;;;;;4971749;28;20046;-78
2022/05/02 03:52:56;;;;;;;18.30;10.13;;;1.50;99.90;;;;;;5022504;28;20448;-78
2022/05/02 03:55:22;;;;;;;14.35;9.38;;;1.50;99.90;;;;;;4990486;28;20125;-84
2022/05/02 03:57:48;;;;;;;16.23;10.20;;;1.50;99.90;;;;;;5005553;28;20045;-82
2022/05/02 04:00:15;;;;;;;16.75;10.80;;;1.50;99.90;;;;;;4973302;28;20053;-78
2022/05/02 04:02:40;;;;;;;17.42;11.45;;;1.60;99.90;;;;;;4974087;28;20108;-80
2022/05/02 04:05:07;;;;;;;17.33;10.52;;;1.50;99.90;;;;;;4989826;28;20497;-80
2022/05/02 04:07:32;;;;;;;15.68;10.52;;;1.50;99.90;;;;;;4973688;28;20132;-78
2022/05/02 04:09:58;;;;;;;15.55;10.60;;;1.50;99.90;;;;;;4989040;28;20223;-79
2022/05/02 04:12:24;;;;;;;16.38;11.43;;;1.50;99.90;;;;;;4990498;28;20072;-83
2022/05/02 04:14:50;;;;;;;14.55;9.82;;;1.50;99.90;;;;;;4989422;28;20060;-78
2022/05/02 04:17:16;;;;;;;16.50;11.32;;;1.60;99.90;;;;;;4991105;28;20042;-78
2022/05/02 04:19:41;;;;;;;17.25;10.35;;;1.60;99.90;;;;;;4989375;28;20050;-79
2022/05/02 04:22:07;;;;;;;14.95;10.43;;;1.60;99.90;;;;;;4973627;28;20047;-78
2022/05/02 04:24:33;;;;;;;13.60;9.98;;;1.60;99.90;;;;;;4989614;28;20085;-78
2022/05/02 04:26:59;;;;;;;17.05;10.07;;;1.60;99.90;;;;;;4974794;28;20733;-79
2022/05/02 04:29:25;;;;;;;15.93;9.40;;;1.60;99.90;;;;;;5022986;28;20053;-83
2022/05/02 04:31:51;;;;;;;11.63;8.50;;;1.70;99.90;;;;;;5005848;28;20111;-78
2022/05/02 04:34:17;;;;;;;10.65;8.00;;;1.70;99.90;;;;;;4994495;28;20509;-78
2022/05/02 04:36:42;;;;;;;12.15;8.68;;;1.70;99.90;;;;;;4994327;28;20073;-78
2022/05/02 04:39:08;;;;;;;12.93;8.73;;;1.70;99.90;;;;;;4994975;28;20054;-78
2022/05/02 04:41:34;;;;;;;15.38;10.02;;;1.70;99.90;;;;;;5009962;28;20046;-79
2022/05/02 04:43:59;;;;;;;15.15;10.65;;;1.70;99.90;;;;;;4956545;28;20057;-78
2022/05/02 04:46:26;;;;;;;13.38;9.82;;;1.80;99.90;;;;;;5010098;28;20468;-83
2022/05/02 04:48:52;;;;;;;13.13;9.73;;;1.90;99.90;;;;;;4986709;28;20058;-78
2022/05/02 04:51:18;;;;;;;14.23;9.85;;;1.90;99.90;;;;;;5009531;28;20076;-77
2022/05/02 04:53:44;;;;;;;13.40;9.88;;;2.00;99.90;;;;;;5026963;28;20120;-78
2022/05/02 04:56:10;;;;;;;13.32;9.63;;;2.00;99.90;;;;;;4995879;28;20448;-77
2022/05/02 04:58:36;;;;;;;13.57;10.02;;;2.00;99.90;;;;;;5011647;28;20432;-78
2022/05/02 05:01:06;;;;;;;17.20;11.07;;;2.00;99.90;;;;;;4994682;28;20056;-78
2022/05/02 05:03:32;;;;;;;15.02;10.57;;;2.10;99.90;;;;;;4996179;28;20517;-79
2022/05/02 05:05:57;;;;;;;16.40;9.98;;;2.10;99.90;;;;;;4975437;28;20041;-78
2022/05/02 05:08:23;;;;;;;13.82;9.20;;;2.20;99.90;;;;;;4990964;28;20058;-78
2022/05/02 05:11:05;;;;;;;14.75;10.10;;;2.20;99.90;;;;;;5001680;28;20063;-79
2022/05/02 05:16:56;;;;;;;21.40;11.60;;;2.40;99.90;;;;;;5011449;28;20100;-80
2022/05/02 05:19:58;;;;;;;16.45;11.15;;;2.60;99.90;;;;;;4995182;28;20061;-80
2022/05/02 05:22:51;;;;;;;24.52;14.85;;;2.70;99.90;;;;;;4997770;28;20096;-79
2022/05/02 05:25:30;;;;;;;22.67;15.40;;;2.80;99.90;;;;;;5008670;28;20498;-78
2022/05/02 05:28:02;;;;;;;25.95;16.27;;;3.10;99.90;;;;;;4994562;28;20085;-79
2022/05/02 05:30:40;;;;;;;25.38;16.73;;;3.00;99.90;;;;;;5024065;28;20046;-83
2022/05/02 05:33:28;;;;;;;26.98;17.98;;;3.10;99.90;;;;;;4992538;28;20149;-80
2022/05/02 05:36:03;;;;;;;30.67;17.60;;;3.30;99.90;;;;;;4993284;28;20057;-80
2022/05/02 05:38:58;;;;;;;30.25;19.05;;;3.40;99.90;;;;;;4992771;28;20053;-84
2022/05/02 05:41:35;;;;;;;34.28;19.98;;;3.60;99.90;;;;;;5008794;28;20096;-81
2022/05/02 05:44:14;;;;;;;35.58;20.98;;;3.80;99.90;;;;;;5023979;28;20054;-82
2022/05/02 05:46:52;;;;;;;31.73;20.75;;;4.10;99.90;;;;;;4993293;28;20489;-81
2022/05/02 05:49:20;;;;;;;33.55;20.08;;;4.30;99.90;;;;;;5023945;28;20042;-78
2022/05/02 05:52:07;;;;;;;30.98;20.17;;;4.40;99.90;;;;;;5021802;28;20054;-79
2022/05/02 05:55:05;;;;;;;27.70;19.65;;;4.60;99.90;;;;;;5023175;28;20045;-81
2022/05/02 05:57:52;;;;;;;30.20;19.77;;;4.90;99.90;;;;;;4992513;28;20132;-85
2022/05/02 06:00:21;;;;;;;32.40;19.17;;;5.10;99.90;;;;;;5009500;28;20076;-78
2022/05/02 06:02:53;;;;;;;28.65;18.83;;;5.40;99.90;;;;;;4977341;28;20062;-79
2022/05/02 06:05:18;;;;;;;26.20;18.65;;;5.60;99.90;;;;;;4994284;28;20836;-79
2022/05/02 06:07:46;;;;;;;26.48;18.30;;;6.00;99.90;;;;;;4973199;28;20137;-78
2022/05/02 06:10:14;;;;;;;24.33;16.55;;;6.20;99.90;;;;;;4987541;28;20042;-80
2022/05/02 06:12:42;;;;;;;23.73;16.38;;;6.60;99.90;;;;;;4976826;28;20058;-79
2022/05/02 06:20:43;;;;;;;17.43;14.37;;;7.60;99.90;;;;;;5001788;28;20050;-82
2022/05/02 06:23:15;;;;;;;18.63;13.52;;;7.80;99.90;;;;;;4983345;28;20837;-80
2022/05/02 06:25:43;;;;;;;19.40;14.18;;;8.20;99.90;;;;;;5007950;28;20052;-79
2022/05/02 06:28:09;;;;;;;23.77;13.52;;;8.50;99.90;;;;;;4976764;28;20469;-80
2022/05/02 06:30:38;;;;;;;14.38;12.88;;;8.70;99.90;;;;;;4991440;28;20045;-81
2022/05/02 06:33:14;;;;;;;15.30;12.43;;;8.90;99.90;;;;;;4992251;28;20129;-79
2022/05/02 06:35:55;;;;;;;15.50;11.90;;;9.20;99.90;;;;;;4987857;28;20440;-79
2022/05/02 06:38:36;;;;;;;13.98;12.02;;;9.30;99.90;;;;;;5007465;28;20049;-79
2022/05/02 06:41:30;;;;;;;14.38;12.00;;;9.40;99.90;;;;;;4990332;28;20111;-81
2022/05/02 06:44:23;;;;;;;16.13;12.45;;;9.50;99.90;;;;;;5018549;28;20041;-79
2022/05/02 06:47:26;;;;;;;14.02;11.88;;;9.50;99.90;;;;;;4992048;28;20069;-80
2022/05/02 06:49:57;;;;;;;15.90;11.15;;;9.60;99.90;;;;;;4973152;28;20051;-82
2022/05/02 06:52:32;;;;;;;13.95;10.38;;;9.50;99.90;;;;;;5019557;28;20045;-78
2022/05/02 06:55:16;;;;;;;13.50;9.77;;;9.50;99.90;;;;;;4983290;28;20100;-77
2022/05/02 06:58:11;;;;;;;11.88;9.02;;;9.60;99.90;;;;;;5025223;28;20054;-80
2022/05/02 07:00:44;;;;;;;13.90;8.85;;;9.60;99.90;;;;;;5024516;28;20121;-80
2022/05/02 07:03:36;;;;;;;12.10;9.02;;;9.60;99.90;;;;;;4998684;28;20075;-79
2022/05/02 07:06:50;;;;;;;10.52;8.90;;;9.60;99.90;;;;;;4985577;28;20073;-82
2022/05/02 07:09:31;;;;;;;15.30;9.30;;;9.80;99.90;;;;;;5000783;28;20072;-78
2022/05/02 07:11:59;;;;;;;12.35;9.55;;;9.80;99.90;;;;;;5009930;28;20038;-79
2022/05/02 07:14:40;;;;;;;11.25;9.05;;;9.90;99.90;;;;;;5024105;28;20116;-79
2022/05/02 07:17:18;;;;;;;12.73;9.02;;;10.00;99.90;;;;;;5009247;28;20060;-79
2022/05/02 07:19:54;;;;;;;14.25;10.15;;;10.10;99.90;;;;;;5019009;28;20042;-80
2022/05/02 07:22:35;;;;;;;11.90;9.70;;;10.20;99.90;;;;;;5010293;28;20065;-79
2022/05/02 07:25:16;;;;;;;12.15;9.48;;;10.40;99.90;;;;;;4995473;28;20508;-78
2022/05/02 07:28:19;;;;;;;12.05;10.10;;;10.60;99.90;;;;;;5024035;28;20131;-82
2022/05/02 07:30:47;;;;;;;10.48;9.40;;;10.90;99.90;;;;;;4991567;28;20096;-79
2022/05/02 07:33:13;;;;;;;13.07;9.23;;;11.10;99.90;;;;;;5008574;28;20120;-79
2022/05/02 07:35:40;;;;;;;11.77;9.77;;;11.30;99.90;;;;;;5026736;28;20049;-84
2022/05/02 07:38:07;;;;;;;12.77;9.65;;;11.20;99.90;;;;;;5025170;28;20042;-78
2022/05/02 07:40:33;;;;;;;11.27;9.02;;;11.30;99.90;;;;;;4991658;28;20045;-78
2022/05/02 07:43:00;;;;;;;14.02;9.52;;;11.20;99.90;;;;;;4959926;28;20107;-79
2022/05/02 07:45:30;;;;;;;13.27;10.07;;;11.20;99.90;;;;;;4992450;28;20085;-79
2022/05/02 07:48:04;;;;;;;14.18;9.60;;;11.30;99.90;;;;;;4975902;28;20057;-78
2022/05/02 07:50:31;;;;;;;12.40;9.63;;;11.20;99.90;;;;;;5006670;28;20500;-80
2022/05/02 07:52:59;;;;;;;11.45;9.57;;;11.20;99.90;;;;;;5036831;28;20042;-78
2022/05/02 07:55:27;;;;;;;12.93;8.85;;;11.20;99.90;;;;;;5013544;28;20042;-79
2022/05/02 07:57:56;;;;;;;11.43;9.07;;;11.20;99.90;;;;;;5017541;28;20065;-80
2022/05/02 08:00:24;;;;;;;12.27;8.75;;;11.10;99.90;;;;;;5034777;28;20050;-81
2022/05/02 08:02:50;;;;;;;14.07;8.95;;;11.20;99.90;;;;;;5006958;28;20120;-78
2022/05/02 08:05:21;;;;;;;11.77;9.20;;;11.10;99.90;;;;;;4990836;28;20489;-78
2022/05/02 08:07:47;;;;;;;15.20;9.07;;;11.20;99.90;;;;;;5015275;28;20077;-78
2022/05/02 08:10:52;;;;;;;10.18;8.43;;;11.20;99.90;;;;;;4989077;28;20045;-79
2022/05/02 08:13:38;;;;;;;11.55;8.48;;;11.20;99.90;;;;;;5033753;28;20054;-79
2022/05/02 08:16:08;;;;;;;11.30;8.43;;;11.40;99.90;;;;;;4993256;28;20053;-79
2022/05/02 08:18:43;;;;;;;10.68;8.68;;;11.40;99.90;;;;;;4995560;28;20105;-79
2022/05/02 08:21:18;;;;;;;11.43;8.73;;;11.50;99.90;;;;;;5023822;28;20176;-79
2022/05/02 08:29:43;;;;;;;9.60;8.50;;;12.00;99.90;;;;;;5007280;28;20065;-79
2022/05/02 08:32:28;;;;;;;9.75;8.43;;;12.20;99.90;;;;;;5008298;28;20553;-80
2022/05/02 08:35:00;;;;;;;10.43;8.52;;;12.30;99.90;;;;;;5006542;28;20057;-80
2022/05/02 08:37:47;;;;;;;12.10;8.85;;;12.60;99.90;;;;;;5023918;28;20053;-80
2022/05/02 08:40:25;;;;;;;9.60;7.70;;;12.80;99.90;;;;;;5023266;28;20050;-83
2022/05/02 08:43:12;;;;;;;13.30;8.30;;;13.00;99.90;;;;;;4988551;28;20394;-79
2022/05/02 08:46:09;;;;;;;12.65;8.65;;;13.20;99.90;;;;;;4998563;28;20039;-79
2022/05/02 08:48:47;;;;;;;;;;;14.20;99.50;;;;;;5028101;28;20107;-81
2022/05/02 08:51:47;;;;;;;12.75;7.85;;;15.50;95.20;;;;;;5005389;28;19925;-81
2022/05/02 08:54:24;;;;;;;11.73;7.88;;;16.80;85.50;;;;;;5007033;28;20098;-81
2022/05/02 08:56:59;;;;;;;9.45;7.70;;;17.70;77.40;;;;;;5007058;28;20512;-80
2022/05/02 08:59:38;;;;;;;10.77;7.43;;;18.50;75.20;;;;;;4987163;28;20482;-81
2022/05/02 09:02:23;;;;;;;12.50;7.60;;;19.30;68.90;;;;;;5011182;28;20480;-80
2022/05/02 09:05:14;;;;;;;11.82;7.57;;;19.90;61.60;;;;;;4981798;28;20061;-82
2022/05/02 09:08:05;;;;;;;10.23;7.15;;;20.40;57.90;;;;;;4990430;28;20057;-79
2022/05/02 09:11:10;;;;;;;9.85;6.97;;;20.80;56.90;;;;;;5007121;28;20050;-80
2022/05/02 09:14:01;;;;;;;9.00;6.45;;;21.20;51.50;;;;;;4986132;28;20062;-80
2022/05/02 09:17:07;;;;;;;9.55;6.93;;;21.60;52.00;;;;;;5030490;28;20132;-79
2022/05/02 09:19:54;;;;;;;7.63;6.40;;;22.00;45.70;;;;;;5033819;28;20046;-79
2022/05/02 09:23:01;;;;;;;8.38;6.57;;;22.30;49.50;;;;;;4991592;28;20108;-79
2022/05/02 09:25:51;;;;;;;8.77;6.18;;;22.60;47.20;;;;;;4963014;28;20496;-79
2022/05/02 09:28:19;;;;;;;6.68;5.50;;;23.10;47.10;;;;;;5011027;28;20041;-79
2022/05/02 09:30:58;;;;;;;7.05;6.32;;;23.60;44.10;;;;;;5023092;28;20103;-84
2022/05/02 09:33:37;;;;;;;10.38;5.68;;;23.90;43.30;;;;;;4997881;28;20528;-79
2022/05/02 09:36:08;;;;;;;7.15;6.30;;;24.30;40.50;;;;;;5010326;28;20047;-81
2022/05/02 09:39:02;;;;;;;6.10;5.32;;;24.60;39.70;;;;;;5027037;28;20137;-80
2022/05/02 09:41:50;;;;;;;7.25;5.65;;;25.00;38.10;;;;;;4994327;28;20085;-79
2022/05/02 09:50:28;;;;;;;5.78;4.75;;;25.80;35.50;;;;;;5010949;28;20038;-79
2022/05/02 09:53:19;;;;;;;10.48;5.30;;;26.20;35.00;;;;;;5009062;28;20497;-80
2022/05/02 09:58:54;;;;;;;7.82;5.40;;;26.70;33.70;;;;;;5013441;28;20115;-77
2022/05/02 10:01:25;;;;;;;4.97;4.43;;;27.00;33.90;;;;;;4996953;28;20049;-77
2022/05/02 10:04:18;;;;;;;8.32;5.32;;;27.30;32.70;;;;;;5007037;28;20073;-77
2022/05/02 10:06:51;;;;;;;5.20;4.70;;;27.50;30.50;;;;;;5007126;28;20149;-77
2022/05/02 10:09:48;;;;;;;5.80;5.00;;;27.20;30.00;;;;;;5030479;28;20046;-76
2022/05/02 10:12:32;;;;;;;;;;;27.20;30.80;;;;;;5026872;28;20795;-80
2022/05/02 10:15:16;;;;;;;5.10;4.53;;;27.00;29.20;;;;;;5003224;28;19921;-77
2022/05/02 10:18:13;;;;;;;6.13;4.53;;;26.90;29.10;;;;;;5013174;28;20516;-79
2022/05/02 10:21:07;;;;;;;5.82;4.43;;;26.50;29.90;;;;;;5013266;28;20540;-79
2022/05/02 10:23:41;;;;;;;5.05;4.57;;;25.10;31.60;;;;;;5008826;28;20053;-78
2022/05/02 10:26:36;;;;;;;4.93;4.25;;;24.80;32.80;;;;;;5001434;28;20119;-77
2022/05/02 10:29:25;;;;;;;8.57;4.95;;;25.50;28.80;;;;;;4989330;28;20061;-80
2022/05/02 10:32:07;;;;;;;5.68;4.93;;;25.90;31.00;;;;;;5036053;28;20492;-83
2022/05/02 10:34:36;;;;;;;6.65;5.10;;;26.40;30.10;;;;;;4997131;28;20053;-80
2022/05/02 10:37:06;;;;;;;6.20;5.10;;;27.00;30.10;;;;;;4976804;28;20201;-80
2022/05/02 10:39:44;;;;;;;9.57;5.00;;;27.50;29.30;;;;;;5026213;28;20404;-81
2022/05/02 10:42:13;;;;;;;6.15;4.88;;;27.70;28.70;;;;;;4987770;28;20111;-80
2022/05/02 10:45:10;;;;;;;6.63;4.85;;;27.40;28.50;;;;;;5012720;28;20484;-79
2022/05/02 10:48:00;;;;;;;7.97;4.70;;;27.20;27.90;;;;;;5000911;28;20090;-79
2022/05/02 10:50:36;;;;;;;5.35;4.80;;;27.50;28.40;;;;;;4996755;28;20093;-80
2022/05/02 10:53:26;;;;;;;6.32;4.75;;;27.80;27.40;;;;;;4982183;28;20427;-78
2022/05/02 10:56:26;;;;;;;6.72;4.75;;;28.10;28.40;;;;;;4990471;28;20080;-85
2022/05/02 10:58:54;;;;;;;9.07;4.80;;;28.60;28.80;;;;;;5009040;28;20144;-84
2022/05/02 11:01:53;;;;;;;5.65;4.20;;;28.90;27.60;;;;;;4998146;28;20103;-81
2022/05/02 11:04:47;;;;;;;6.30;4.80;;;29.10;26.00;;;;;;5023982;28;20129;-79
2022/05/02 11:07:27;;;;;;;7.55;4.82;;;28.70;24.60;;;;;;5007698;28;20054;-78
2022/05/02 11:10:02;;;;;;;5.22;4.68;;;28.40;26.80;;;;;;5034099;28;20065;-84
2022/05/02 11:12:32;;;;;;;5.20;4.70;;;28.40;26.70;;;;;;5012583;28;20053;-79
2022/05/02 11:15:06;;;;;;;5.35;3.90;;;28.80;26.20;;;;;;4991964;28;20058;-80
2022/05/02 11:18:10;;;;;;;5.15;4.22;;;29.50;25.60;;;;;;4998659;28;20102;-81
2022/05/02 11:20:54;;;;;;;5.82;3.88;;;29.80;23.70;;;;;;4991965;28;20045;-83
2022/05/02 11:23:30;;;;;;;5.05;3.40;;;29.80;24.30;;;;;;5026477;28;20041;-81
2022/05/02 11:26:21;;;;;;;4.57;3.60;;;29.90;24.60;;;;;;5024866;28;20046;-79
2022/05/02 11:28:56;;;;;;;5.75;3.45;;;30.20;24.30;;;;;;5001782;28;20081;-78
2022/05/02 11:31:50;;;;;;;3.97;3.20;;;30.50;23.00;;;;;;4989097;28;20045;-82
2022/05/02 11:34:32;;;;;;;4.10;3.70;;;30.80;23.20;;;;;;5002476;28;20034;-78
2022/05/02 11:37:00;;;;;;;4.00;3.58;;;30.80;22.00;;;;;;4988067;28;20052;-77
2022/05/02 11:39:48;;;;;;;9.05;3.45;;;30.60;21.90;;;;;;4971909;28;20132;-77
2022/05/02 11:42:15;;;;;;;5.63;4.00;;;31.00;23.00;;;;;;4989400;28;20504;-81
2022/05/02 11:45:01;;;;;;;4.70;4.10;;;31.10;22.40;;;;;;4991939;28;20412;-77
2022/05/02 11:48:01;;;;;;;5.18;4.32;;;30.90;23.00;;;;;;5036781;28;20054;-78
2022/05/02 11:50:30;;;;;;;5.60;4.57;;;30.90;23.00;;;;;;5041469;28;20053;-82
2022/05/02 11:52:59;;;;;;;5.43;4.82;;;30.70;23.30;;;;;;5038966;28;20078;-83
2022/05/02 11:55:34;;;;;;;6.90;5.03;;;30.40;23.10;;;;;;5011878;28;20111;-79
2022/05/02 11:58:07;;;;;;;5.43;4.82;;;30.30;23.30;;;;;;5005381;28;20046;-80
2022/05/02 12:00:36;;;;;;;4.95;4.35;;;30.60;23.00;;;;;;4990478;28;20128;-78
2022/05/02 12:03:14;;;;;;;5.03;4.53;;;30.90;23.10;;;;;;5007436;28;20057;-78
2022/05/02 12:05:42;;;;;;;4.90;4.10;;;31.80;23.30;;;;;;5019269;28;20046;-79
2022/05/02 12:08:10;;;;;;;5.07;4.57;;;32.50;23.00;;;;;;4991449;28;20049;-78
2022/05/02 12:10:46;;;;;;;7.25;4.35;;;33.10;22.50;;;;;;5031759;28;20058;-77
2022/05/02 12:13:20;;;;;;;6.13;4.60;;;33.30;21.90;;;;;;5006263;28;20081;-77
2022/05/02 12:16:03;;;;;;;6.53;4.35;;;32.70;21.80;;;;;;4992044;28;20414;-78
2022/05/02 12:18:46;;;;;;;6.72;4.90;;;31.90;22.60;;;;;;5024756;28;20077;-77
2022/05/02 12:21:30;;;;;;;5.93;4.80;;;30.40;22.40;;;;;;5024015;28;20140;-78
2022/05/02 12:23:58;;;;;;;6.28;4.25;;;28.40;23.90;;;;;;5024585;28;20052;-82
2022/05/02 12:26:25;;;;;;;7.35;5.60;;;26.60;25.40;;;;;;4991203;28;20140;-77
2022/05/02 12:29:03;;;;;;;8.05;5.22;;;25.90;26.70;;;;;;5044486;28;20048;-78
2022/05/02 12:31:35;;;;;;;7.70;5.70;;;26.90;26.90;;;;;;4991748;28;20705;-78
2022/05/02 12:34:05;;;;;;;5.55;4.97;;;28.00;25.40;;;;;;5024159;28;20045;-78
2022/05/02 12:36:56;;;;;;;6.97;5.13;;;29.00;24.90;;;;;;5000944;28;20056;-78
2022/05/02 12:39:22;;;;;;;6.93;4.80;;;28.50;23.70;;;;;;4991226;28;20054;-78
2022/05/02 12:41:50;;;;;;;5.47;4.97;;;26.70;25.00;;;;;;5001947;28;20042;-77
2022/05/02 12:44:17;;;;;;;7.15;5.55;;;26.50;26.20;;;;;;5007164;28;20049;-78
2022/05/02 12:46:50;;;;;;;6.88;5.05;;;27.50;25.80;;;;;;4980564;28;20065;-80
2022/05/02 12:49:28;;;;;;;6.82;4.80;;;28.60;25.10;;;;;;4987987;28;20046;-79
2022/05/02 12:51:56;;;;;;;5.93;4.80;;;29.60;24.40;;;;;;4998979;28;20042;-80
2022/05/02 12:54:25;;;;;;;5.95;4.97;;;30.40;23.80;;;;;;5025352;28;20072;-79
2022/05/02 13:02:38;;;;;;;6.78;4.63;;;32.00;22.40;;;;;;5010938;28;20104;-78
2022/05/02 13:05:09;;;;;;;6.80;4.38;;;31.80;22.50;;;;;;5010764;28;20057;-78
2022/05/02 13:07:46;;;;;;;6.30;4.70;;;31.80;22.20;;;;;;5009948;28;20058;-82
2022/05/02 13:10:22;;;;;;;4.88;4.38;;;31.80;21.90;;;;;;5011468;28;20057;-78
2022/05/02 13:13:04;;;;;;;7.45;4.78;;;32.20;22.10;;;;;;4982596;28;20092;-78
2022/05/02 13:15:36;;;;;;;6.22;4.53;;;32.60;22.10;;;;;;5003242;28;20054;-79
2022/05/02 13:18:22;;;;;;;6.60;4.22;;;32.40;21.60;;;;;;5026060;28;20058;-84
2022/05/02 13:21:13;;;;;;;8.95;5.32;;;31.70;21.40;;;;;;5025037;28;20120;-78
2022/05/02 13:23:46;;;;;;;7.22;4.30;;;31.30;21.50;;;;;;5009189;28;20077;-78
2022/05/02 13:26:43;;;;;;;5.30;4.88;;;31.30;22.00;;;;;;5010757;28;20052;-78
2022/05/02 13:29:29;;;;;;;5.60;4.80;;;31.50;20.90;;;;;;5011586;28;20060;-78
2022/05/02 13:32:08;;;;;;;6.90;4.60;;;31.70;21.80;;;;;;5026012;28;20057;-82
2022/05/02 13:34:51;;;;;;;4.78;3.90;;;32.00;21.70;;;;;;5013475;28;20061;-78
2022/05/02 13:37:41;;;;;;;7.50;4.32;;;32.40;20.90;;;;;;5010537;28;20046;-79
2022/05/02 13:40:11;;;;;;;6.00;4.30;;;32.40;20.90;;;;;;5010393;28;20046;-79
2022/05/02 13:42:46;;;;;;;6.65;4.38;;;32.40;20.90;;;;;;5018784;28;20050;-79
2022/05/02 13:45:28;;;;;;;4.63;4.20;;;32.50;21.10;;;;;;4994053;28;20089;-79
2022/05/02 13:48:12;;;;;;;7.25;4.43;;;32.30;20.20;;;;;;5010978;28;20130;-78
2022/05/02 13:51:28;;;;;;;8.35;4.57;;;31.80;20.50;;;;;;5010412;28;20038;-78
2022/05/02 13:54:33;;;;;;;7.50;4.75;;;31.50;20.40;;;;;;5010515;28;20173;-78